sensor_id;sensor_type;location;lat;lon;timestamp;pressure;altitude;pressure_sealevel;temperature;humidity
8039;BME280;4062;49.844;8.120;2022-12-07T00:01:29;99440.06;;;14.04;58.72
8039;BME280;4062;49.844;8.120;2022-12-07T00:03:30;99445.38;;;14.04;58.75
8039;BME280;4062;49.844;8.120;2022-12-07T00:05:31;99443.56;;;14.05;58.46
8039;BME280;4062;49.844;8.120;2022-12-07T00:07:32;99440.97;;;14.03;58.83
8039;BME280;4062;49.844;8.120;2022-12-07T00:09:32;99436.56;;;14.04;58.69
8039;BME280;4062;49.844;8.120;2022-12-07T00:11:33;99428.63;;;14.02;58.81
8039;BME280;4062;49.844;8.120;2022-12-07T00:13:35;99428.63;;;14.02;58.90
8039;BME280;4062;49.844;8.120;2022-12-07T00:15:36;99419.78;;;14.02;58.79
8039;BME280;4062;49.844;8.120;2022-12-07T00:17:37;99423.31;;;14.02;58.84
8039;BME280;4062;49.844;8.120;2022-12-07T00:19:38;99421.53;;;14.03;58.76
8039;BME280;4062;49.844;8.120;2022-12-07T00:21:38;99420.66;;;14.02;58.67
8039;BME280;4062;49.844;8.120;2022-12-07T00:23:41;99419.72;;;14.03;58.67
8039;BME280;4062;49.844;8.120;2022-12-07T00:25:42;99414.47;;;14.02;58.71
8039;BME280;4062;49.844;8.120;2022-12-07T00:27:43;99413.56;;;14.03;58.63
8039;BME280;4062;49.844;8.120;2022-12-07T00:29:44;99413.56;;;14.03;58.81
8039;BME280;4062;49.844;8.120;2022-12-07T00:31:45;99414.47;;;14.02;58.62
8039;BME280;4062;49.844;8.120;2022-12-07T00:33:46;99412.69;;;14.02;58.85
8039;BME280;4062;49.844;8.120;2022-12-07T00:35:58;99400.31;;;14.01;58.64
8039;BME280;4062;49.844;8.120;2022-12-07T00:38:03;99402.06;;;14.02;58.72
8039;BME280;4062;49.844;8.120;2022-12-07T00:40:05;99399.41;;;14.02;58.75
8039;BME280;4062;49.844;8.120;2022-12-07T00:42:06;99398.53;;;14.02;58.67
8039;BME280;4062;49.844;8.120;2022-12-07T00:44:07;99396.75;;;14.02;58.64
8039;BME280;4062;49.844;8.120;2022-12-07T00:46:08;99395.88;;;14.02;58.85
8039;BME280;4062;49.844;8.120;2022-12-07T00:48:09;99393.22;;;14.02;58.63
8039;BME280;4062;49.844;8.120;2022-12-07T00:50:09;99395.88;;;14.02;58.67
8039;BME280;4062;49.844;8.120;2022-12-07T00:52:10;99386.13;;;14.02;58.62
8039;BME280;4062;49.844;8.120;2022-12-07T00:54:13;99389.69;;;14.01;58.65
8039;BME280;4062;49.844;8.120;2022-12-07T00:56:18;99379.03;;;14.03;58.64
8039;BME280;4062;49.844;8.120;2022-12-07T00:58:20;99378.16;;;14.02;58.76
8039;BME280;4062;49.844;8.120;2022-12-07T01:00:20;99380.81;;;14.02;58.75
8039;BME280;4062;49.844;8.120;2022-12-07T01:02:21;99373.75;;;14.01;58.68
8039;BME280;4062;49.844;8.120;2022-12-07T01:04:22;99369.31;;;14.02;58.81
8039;BME280;4062;49.844;8.120;2022-12-07T01:06:24;99377.28;;;14.02;58.75
8039;BME280;4062;49.844;8.120;2022-12-07T01:08:26;99375.56;;;14.01;58.70
8039;BME280;4062;49.844;8.120;2022-12-07T01:10:28;99395.00;;;14.01;58.70
8039;BME280;4062;49.844;8.120;2022-12-07T01:12:30;99394.97;;;14.03;58.82
8039;BME280;4062;49.844;8.120;2022-12-07T01:14:31;99384.38;;;14.01;58.65
8039;BME280;4062;49.844;8.120;2022-12-07T01:16:32;99381.69;;;14.03;58.69
8039;BME280;4062;49.844;8.120;2022-12-07T01:18:35;99379.94;;;14.02;58.85
8039;BME280;4062;49.844;8.120;2022-12-07T01:20:36;99383.53;;;14.01;58.75
8039;BME280;4062;49.844;8.120;2022-12-07T01:22:39;99371.97;;;14.02;58.74
8039;BME280;4062;49.844;8.120;2022-12-07T01:24:40;99368.44;;;14.01;58.78
8039;BME280;4062;49.844;8.120;2022-12-07T01:26:41;99378.22;;;14.01;58.73
8039;BME280;4062;49.844;8.120;2022-12-07T01:28:42;99374.63;;;14.02;58.70
8039;BME280;4062;49.844;8.120;2022-12-07T01:30:43;99387.03;;;14.01;58.71
8039;BME280;4062;49.844;8.120;2022-12-07T01:32:43;99378.16;;;14.02;58.72
8039;BME280;4062;49.844;8.120;2022-12-07T01:34:44;99386.13;;;14.02;58.84
8039;BME280;4062;49.844;8.120;2022-12-07T01:36:45;99373.75;;;14.01;58.59
8039;BME280;4062;49.844;8.120;2022-12-07T01:38:47;99372.84;;;14.02;58.67
8039;BME280;4062;49.844;8.120;2022-12-07T01:40:55;99379.94;;;14.02;58.71
8039;BME280;4062;49.844;8.120;2022-12-07T01:42:56;99375.50;;;14.02;58.90
8039;BME280;4062;49.844;8.120;2022-12-07T01:47:18;99375.56;;;14.01;58.68
8039;BME280;4062;49.844;8.120;2022-12-07T01:51:24;99371.09;;;14.01;58.83
8039;BME280;4062;49.844;8.120;2022-12-07T01:53:26;99374.69;;;14.00;58.77
8039;BME280;4062;49.844;8.120;2022-12-07T01:55:29;99374.63;;;14.02;58.71
8039;BME280;4062;49.844;8.120;2022-12-07T01:57:33;99374.63;;;14.02;58.67
8039;BME280;4062;49.844;8.120;2022-12-07T01:59:35;99378.09;;;14.04;58.89
8039;BME280;4062;49.844;8.120;2022-12-07T02:01:36;99371.09;;;14.01;58.86
8039;BME280;4062;49.844;8.120;2022-12-07T02:03:41;99368.44;;;14.01;58.83
8039;BME280;4062;49.844;8.120;2022-12-07T02:05:43;99373.75;;;14.01;58.75
8039;BME280;4062;49.844;8.120;2022-12-07T02:07:46;99365.84;;;14.00;58.60
8039;BME280;4062;49.844;8.120;2022-12-07T02:09:48;99363.13;;;14.01;58.66
8039;BME280;4062;49.844;8.120;2022-12-07T02:11:49;99362.28;;;14.01;58.70
8039;BME280;4062;49.844;8.120;2022-12-07T02:13:51;99356.97;;;14.01;58.79
8039;BME280;4062;49.844;8.120;2022-12-07T02:18:25;99352.56;;;14.00;58.67
8039;BME280;4062;49.844;8.120;2022-12-07T02:23:32;99353.38;;;14.02;58.68
8039;BME280;4062;49.844;8.120;2022-12-07T02:31:16;99351.66;;;14.01;59.05
8039;BME280;4062;49.844;8.120;2022-12-07T02:33:31;99349.00;;;14.01;58.70
8039;BME280;4062;49.844;8.120;2022-12-07T02:35:59;99343.69;;;14.01;58.71
8039;BME280;4062;49.844;8.120;2022-12-07T02:42:42;99346.34;;;14.01;58.77
8039;BME280;4062;49.844;8.120;2022-12-07T02:44:46;99340.13;;;14.00;58.82
8039;BME280;4062;49.844;8.120;2022-12-07T02:46:55;99342.78;;;14.00;58.83
8039;BME280;4062;49.844;8.120;2022-12-07T02:48:58;99343.69;;;14.01;58.88
8039;BME280;4062;49.844;8.120;2022-12-07T02:51:00;99340.13;;;14.00;58.72
8039;BME280;4062;49.844;8.120;2022-12-07T02:53:01;99331.31;;;14.00;58.69
8039;BME280;4062;49.844;8.120;2022-12-07T02:55:02;99339.22;;;14.01;58.76
8039;BME280;4062;49.844;8.120;2022-12-07T03:06:49;99335.72;;;14.01;58.72
8039;BME280;4062;49.844;8.120;2022-12-07T03:09:14;99330.41;;;14.01;58.66
8039;BME280;4062;49.844;8.120;2022-12-07T03:11:50;99332.19;;;14.00;58.82
8039;BME280;4062;49.844;8.120;2022-12-07T03:14:07;99333.97;;;14.00;58.78
8039;BME280;4062;49.844;8.120;2022-12-07T03:16:33;99336.63;;;14.00;58.80
8039;BME280;4062;49.844;8.120;2022-12-07T03:18:40;99335.78;;;13.99;58.78
8039;BME280;4062;49.844;8.120;2022-12-07T03:20:44;99333.97;;;14.00;58.70
8039;BME280;4062;49.844;8.120;2022-12-07T03:22:47;99328.66;;;14.00;58.69
8039;BME280;4062;49.844;8.120;2022-12-07T03:24:55;99331.31;;;14.00;58.66
8039;BME280;4062;49.844;8.120;2022-12-07T03:27:18;99330.47;;;13.99;59.00
8039;BME280;4062;49.844;8.120;2022-12-07T03:29:31;99331.31;;;14.00;58.64
8039;BME280;4062;49.844;8.120;2022-12-07T03:31:46;99329.53;;;14.00;58.78
8039;BME280;4062;49.844;8.120;2022-12-07T03:34:17;99319.84;;;13.99;58.80
8039;BME280;4062;49.844;8.120;2022-12-07T03:41:27;99321.53;;;14.00;58.82
8039;BME280;4062;49.844;8.120;2022-12-07T03:43:29;99322.44;;;14.01;58.75
8039;BME280;4062;49.844;8.120;2022-12-07T03:46:09;99329.59;;;13.99;58.87
8039;BME280;4062;49.844;8.120;2022-12-07T03:48:35;99326.94;;;13.99;58.77
8039;BME280;4062;49.844;8.120;2022-12-07T03:50:55;99325.09;;;14.01;58.71
8039;BME280;4062;49.844;8.120;2022-12-07T03:53:05;99320.69;;;14.00;58.69
8039;BME280;4062;49.844;8.120;2022-12-07T03:57:26;99318.03;;;14.00;58.64
8039;BME280;4062;49.844;8.120;2022-12-07T03:59:28;99311.88;;;13.99;58.58
8039;BME280;4062;49.844;8.120;2022-12-07T04:01:30;99320.69;;;14.00;58.60
8039;BME280;4062;49.844;8.120;2022-12-07T04:03:31;99324.19;;;14.00;58.92
8039;BME280;4062;49.844;8.120;2022-12-07T04:05:32;99323.34;;;14.00;58.72
8039;BME280;4062;49.844;8.120;2022-12-07T04:07:33;99321.53;;;14.00;58.66
8039;BME280;4062;49.844;8.120;2022-12-07T04:09:33;99314.53;;;13.99;58.85
8039;BME280;4062;49.844;8.120;2022-12-07T04:11:34;99320.69;;;14.00;58.77
8039;BME280;4062;49.844;8.120;2022-12-07T04:13:35;99315.38;;;14.00;58.69
8039;BME280;4062;49.844;8.120;2022-12-07T04:15:55;99322.50;;;13.99;58.70
8039;BME280;4062;49.844;8.120;2022-12-07T04:17:56;99318.97;;;13.99;58.69
8039;BME280;4062;49.844;8.120;2022-12-07T04:19:57;99315.38;;;14.00;58.69
8039;BME280;4062;49.844;8.120;2022-12-07T04:22:00;99321.53;;;14.00;58.64
8039;BME280;4062;49.844;8.120;2022-12-07T04:24:01;99317.19;;;13.99;58.59
8039;BME280;4062;49.844;8.120;2022-12-07T04:26:01;99320.69;;;14.00;58.78
8039;BME280;4062;49.844;8.120;2022-12-07T04:28:02;99315.38;;;14.00;58.88
8039;BME280;4062;49.844;8.120;2022-12-07T04:30:04;99325.09;;;14.01;58.79
8039;BME280;4062;49.844;8.120;2022-12-07T04:32:05;99320.69;;;14.00;58.87
8039;BME280;4062;49.844;8.120;2022-12-07T04:34:06;99325.09;;;14.01;58.68
8039;BME280;4062;49.844;8.120;2022-12-07T04:36:07;99318.03;;;14.00;58.66
8039;BME280;4062;49.844;8.120;2022-12-07T04:38:08;99315.38;;;14.00;58.72
8039;BME280;4062;49.844;8.120;2022-12-07T04:40:09;99322.50;;;13.99;58.80
8039;BME280;4062;49.844;8.120;2022-12-07T04:42:11;99319.78;;;14.01;58.59
8039;BME280;4062;49.844;8.120;2022-12-07T04:44:14;99325.09;;;14.01;58.78
8039;BME280;4062;49.844;8.120;2022-12-07T04:46:15;99320.69;;;14.00;58.72
8039;BME280;4062;49.844;8.120;2022-12-07T04:48:16;99320.69;;;14.00;58.80
8039;BME280;4062;49.844;8.120;2022-12-07T04:50:16;99325.16;;;13.99;58.59
8039;BME280;4062;49.844;8.120;2022-12-07T04:52:17;99323.34;;;14.00;58.94
8039;BME280;4062;49.844;8.120;2022-12-07T04:54:18;99319.84;;;13.99;58.65
8039;BME280;4062;49.844;8.120;2022-12-07T04:56:19;99321.53;;;14.00;58.73
8039;BME280;4062;49.844;8.120;2022-12-07T04:58:20;99319.84;;;13.99;58.79
8039;BME280;4062;49.844;8.120;2022-12-07T05:00:21;99318.97;;;13.99;58.73
8039;BME280;4062;49.844;8.120;2022-12-07T05:02:22;99311.88;;;13.99;58.78
8039;BME280;4062;49.844;8.120;2022-12-07T05:04:22;99314.53;;;13.99;58.77
8039;BME280;4062;49.844;8.120;2022-12-07T05:06:23;99315.38;;;14.00;58.63
8039;BME280;4062;49.844;8.120;2022-12-07T05:08:24;99310.94;;;14.00;58.77
8039;BME280;4062;49.844;8.120;2022-12-07T05:10:25;99304.75;;;14.00;58.63
8039;BME280;4062;49.844;8.120;2022-12-07T05:12:25;99311.81;;;14.01;58.69
8039;BME280;4062;49.844;8.120;2022-12-07T05:14:26;99305.59;;;14.00;58.66
8039;BME280;4062;49.844;8.120;2022-12-07T05:16:27;99305.59;;;14.00;59.00
8039;BME280;4062;49.844;8.120;2022-12-07T05:18:28;99309.22;;;13.99;58.72
8039;BME280;4062;49.844;8.120;2022-12-07T05:20:28;99309.16;;;14.01;58.69
8039;BME280;4062;49.844;8.120;2022-12-07T05:22:29;99311.81;;;14.01;58.73
8039;BME280;4062;49.844;8.120;2022-12-07T05:24:30;99313.56;;;14.00;58.63
8039;BME280;4062;49.844;8.120;2022-12-07T05:26:31;99311.88;;;13.99;58.84
8039;BME280;4062;49.844;8.120;2022-12-07T05:28:32;99311.88;;;13.99;58.59
8039;BME280;4062;49.844;8.120;2022-12-07T05:30:32;99313.56;;;14.00;58.65
8039;BME280;4062;49.844;8.120;2022-12-07T05:32:33;99307.41;;;14.00;58.76
8039;BME280;4062;49.844;8.120;2022-12-07T05:34:34;99314.53;;;13.99;58.87
8039;BME280;4062;49.844;8.120;2022-12-07T05:36:35;99312.72;;;14.00;58.86
8039;BME280;4062;49.844;8.120;2022-12-07T05:38:35;99303.91;;;13.99;58.64
8039;BME280;4062;49.844;8.120;2022-12-07T05:40:37;99313.66;;;13.99;58.73
8039;BME280;4062;49.844;8.120;2022-12-07T05:42:38;99311.00;;;13.99;58.51
8039;BME280;4062;49.844;8.120;2022-12-07T05:44:41;99310.06;;;14.00;58.67
8039;BME280;4062;49.844;8.120;2022-12-07T05:46:42;99319.84;;;13.99;58.70
8039;BME280;4062;49.844;8.120;2022-12-07T05:48:43;99320.69;;;14.00;58.70
8039;BME280;4062;49.844;8.120;2022-12-07T05:50:44;99314.53;;;13.99;58.80
8039;BME280;4062;49.844;8.120;2022-12-07T05:52:44;99322.50;;;13.99;58.65
8039;BME280;4062;49.844;8.120;2022-12-07T05:54:45;99319.84;;;13.99;58.71
8039;BME280;4062;49.844;8.120;2022-12-07T05:56:46;99318.03;;;14.00;58.63
8039;BME280;4062;49.844;8.120;2022-12-07T05:58:46;99317.19;;;13.99;58.76
8039;BME280;4062;49.844;8.120;2022-12-07T06:01:05;99319.03;;;13.97;58.73
8039;BME280;4062;49.844;8.120;2022-12-07T06:03:06;99316.31;;;13.99;58.80
8039;BME280;4062;49.844;8.120;2022-12-07T06:05:07;99313.66;;;13.99;58.78
8039;BME280;4062;49.844;8.120;2022-12-07T06:07:09;99317.19;;;13.99;58.73
8039;BME280;4062;49.844;8.120;2022-12-07T06:09:11;99314.53;;;13.99;58.74
8039;BME280;4062;49.844;8.120;2022-12-07T06:11:12;99318.03;;;14.00;58.57
8039;BME280;4062;49.844;8.120;2022-12-07T06:13:32;99310.06;;;14.00;58.83
8039;BME280;4062;49.844;8.120;2022-12-07T06:15:32;99316.31;;;13.99;58.83
8039;BME280;4062;49.844;8.120;2022-12-07T06:17:33;99310.06;;;14.00;58.69
8039;BME280;4062;49.844;8.120;2022-12-07T06:19:34;99310.94;;;14.00;58.59
8039;BME280;4062;49.844;8.120;2022-12-07T06:21:35;99317.19;;;13.99;58.88
8039;BME280;4062;49.844;8.120;2022-12-07T06:23:36;99314.56;;;13.98;58.65
8039;BME280;4062;49.844;8.120;2022-12-07T06:25:37;99316.31;;;13.99;58.69
8039;BME280;4062;49.844;8.120;2022-12-07T06:27:37;99317.19;;;13.99;58.84
8039;BME280;4062;49.844;8.120;2022-12-07T06:29:38;99311.88;;;13.99;58.66
8039;BME280;4062;49.844;8.120;2022-12-07T06:31:39;99320.69;;;14.00;58.76
8039;BME280;4062;49.844;8.120;2022-12-07T06:33:41;99311.00;;;13.99;58.69
8039;BME280;4062;49.844;8.120;2022-12-07T06:35:41;99311.88;;;13.99;58.70
8039;BME280;4062;49.844;8.120;2022-12-07T06:37:42;99312.72;;;14.00;58.64
8039;BME280;4062;49.844;8.120;2022-12-07T06:39:43;99317.19;;;13.99;58.64
8039;BME280;4062;49.844;8.120;2022-12-07T06:41:44;99323.34;;;14.00;58.64
8039;BME280;4062;49.844;8.120;2022-12-07T06:43:45;99313.56;;;14.00;58.72
8039;BME280;4062;49.844;8.120;2022-12-07T06:45:45;99318.97;;;13.99;58.67
8039;BME280;4062;49.844;8.120;2022-12-07T06:47:46;99314.53;;;13.99;58.80
8039;BME280;4062;49.844;8.120;2022-12-07T06:49:47;99315.47;;;13.98;58.80
8039;BME280;4062;49.844;8.120;2022-12-07T06:51:47;99318.88;;;14.00;58.72
8039;BME280;4062;49.844;8.120;2022-12-07T06:53:48;99318.97;;;13.99;58.62
8039;BME280;4062;49.844;8.120;2022-12-07T06:55:49;99310.13;;;13.98;58.60
8039;BME280;4062;49.844;8.120;2022-12-07T06:57:50;99314.53;;;13.99;58.54
8039;BME280;4062;49.844;8.120;2022-12-07T06:59:50;99325.16;;;13.99;58.58
8039;BME280;4062;49.844;8.120;2022-12-07T07:01:51;99320.69;;;14.00;58.59
8039;BME280;4062;49.844;8.120;2022-12-07T07:03:52;99326.00;;;14.00;58.66
8039;BME280;4062;49.844;8.120;2022-12-07T07:05:53;99327.81;;;13.99;58.72
8039;BME280;4062;49.844;8.120;2022-12-07T07:07:54;99327.81;;;13.99;58.58
8039;BME280;4062;49.844;8.120;2022-12-07T07:09:55;99330.47;;;13.99;58.84
8039;BME280;4062;49.844;8.120;2022-12-07T07:11:56;99329.59;;;13.99;58.76
8039;BME280;4062;49.844;8.120;2022-12-07T07:13:59;99332.25;;;13.99;58.67
8039;BME280;4062;49.844;8.120;2022-12-07T07:16:02;99331.31;;;14.00;58.84
8039;BME280;4062;49.844;8.120;2022-12-07T07:18:03;99343.69;;;14.01;58.64
8039;BME280;4062;49.844;8.120;2022-12-07T07:20:05;99330.47;;;13.99;58.85
8039;BME280;4062;49.844;8.120;2022-12-07T07:22:06;99336.63;;;14.00;58.60
8039;BME280;4062;49.844;8.120;2022-12-07T07:24:07;99338.44;;;13.99;58.69
8039;BME280;4062;49.844;8.120;2022-12-07T07:26:07;99327.81;;;13.99;58.63
8039;BME280;4062;49.844;8.120;2022-12-07T07:28:08;99333.13;;;13.99;58.81
8039;BME280;4062;49.844;8.120;2022-12-07T07:30:09;99337.47;;;14.00;58.80
8039;BME280;4062;49.844;8.120;2022-12-07T07:32:10;99336.63;;;14.00;58.66
8039;BME280;4062;49.844;8.120;2022-12-07T07:34:11;99341.94;;;14.00;58.60
8039;BME280;4062;49.844;8.120;2022-12-07T07:36:12;99344.69;;;13.98;58.73
8039;BME280;4062;49.844;8.120;2022-12-07T07:38:12;99341.09;;;13.99;58.79
8039;BME280;4062;49.844;8.120;2022-12-07T07:40:13;99349.06;;;13.99;58.90
8039;BME280;4062;49.844;8.120;2022-12-07T07:42:14;99340.22;;;13.99;59.00
8039;BME280;4062;49.844;8.120;2022-12-07T07:44:15;99347.25;;;14.00;58.49
8039;BME280;4062;49.844;8.120;2022-12-07T07:46:17;99352.56;;;14.00;58.72
8039;BME280;4062;49.844;8.120;2022-12-07T07:48:18;99344.59;;;14.00;58.69
8039;BME280;4062;49.844;8.120;2022-12-07T07:50:19;99345.53;;;13.99;58.71
8039;BME280;4062;49.844;8.120;2022-12-07T07:52:19;99355.22;;;14.00;58.83
8039;BME280;4062;49.844;8.120;2022-12-07T07:54:23;99354.38;;;13.99;58.73
8039;BME280;4062;49.844;8.120;2022-12-07T07:56:23;99349.06;;;13.99;58.53
8039;BME280;4062;49.844;8.120;2022-12-07T07:58:24;99347.25;;;14.00;58.57
8039;BME280;4062;49.844;8.120;2022-12-07T08:00:25;99353.44;;;14.00;58.87
8039;BME280;4062;49.844;8.120;2022-12-07T08:02:28;99346.41;;;13.99;58.78
8039;BME280;4062;49.844;8.120;2022-12-07T08:04:30;99355.22;;;14.00;58.71
8039;BME280;4062;49.844;8.120;2022-12-07T08:06:30;99357.03;;;13.99;58.62
8039;BME280;4062;49.844;8.120;2022-12-07T08:08:32;99350.84;;;13.99;58.66
8039;BME280;4062;49.844;8.120;2022-12-07T08:10:32;99358.81;;;13.99;58.65
8039;BME280;4062;49.844;8.120;2022-12-07T08:12:42;99353.44;;;14.00;58.63
8039;BME280;4062;49.844;8.120;2022-12-07T08:15:02;99349.06;;;13.99;58.76
8039;BME280;4062;49.844;8.120;2022-12-07T08:17:02;99347.31;;;13.98;58.71
8039;BME280;4062;49.844;8.120;2022-12-07T08:19:05;99349.91;;;14.00;58.69
8039;BME280;4062;49.844;8.120;2022-12-07T08:21:07;99345.53;;;13.99;58.67
8039;BME280;4062;49.844;8.120;2022-12-07T08:23:09;99354.38;;;13.99;58.67
8039;BME280;4062;49.844;8.120;2022-12-07T08:25:10;99357.88;;;14.00;58.71
8039;BME280;4062;49.844;8.120;2022-12-07T08:27:11;99354.41;;;13.98;58.81
8039;BME280;4062;49.844;8.120;2022-12-07T08:29:12;99352.66;;;13.98;58.85
8039;BME280;4062;49.844;8.120;2022-12-07T08:31:16;99358.81;;;13.99;58.86
8039;BME280;4062;49.844;8.120;2022-12-07T08:33:17;99361.38;;;14.00;58.60
8039;BME280;4062;49.844;8.120;2022-12-07T08:35:18;99364.03;;;14.00;58.75
8039;BME280;4062;49.844;8.120;2022-12-07T08:37:19;99355.22;;;14.00;58.65
8039;BME280;4062;49.844;8.120;2022-12-07T08:39:19;99361.38;;;14.00;58.64
8039;BME280;4062;49.844;8.120;2022-12-07T08:41:20;99360.53;;;14.00;58.64
8039;BME280;4062;49.844;8.120;2022-12-07T08:43:21;99360.53;;;14.00;58.74
8039;BME280;4062;49.844;8.120;2022-12-07T08:45:22;99356.97;;;14.01;58.65
8039;BME280;4062;49.844;8.120;2022-12-07T08:47:24;99355.22;;;14.00;58.62
8039;BME280;4062;49.844;8.120;2022-12-07T08:49:35;99364.13;;;13.99;58.73
8039;BME280;4062;49.844;8.120;2022-12-07T08:51:37;99364.03;;;14.00;58.77
8039;BME280;4062;49.844;8.120;2022-12-07T08:53:40;99363.19;;;14.00;58.77
8039;BME280;4062;49.844;8.120;2022-12-07T08:55:41;99358.75;;;14.00;58.73
8039;BME280;4062;49.844;8.120;2022-12-07T08:57:42;99360.53;;;14.00;58.76
8039;BME280;4062;49.844;8.120;2022-12-07T08:59:43;99366.72;;;14.00;58.80
8039;BME280;4062;49.844;8.120;2022-12-07T09:01:43;99364.03;;;14.00;58.65
8039;BME280;4062;49.844;8.120;2022-12-07T09:03:44;99360.53;;;14.00;58.71
8039;BME280;4062;49.844;8.120;2022-12-07T09:05:45;99365.00;;;13.99;58.63
8039;BME280;4062;49.844;8.120;2022-12-07T09:07:49;99365.00;;;13.99;58.67
8039;BME280;4062;49.844;8.120;2022-12-07T09:09:51;99362.34;;;13.99;58.87
8039;BME280;4062;49.844;8.120;2022-12-07T09:11:52;99370.31;;;13.99;58.69
8039;BME280;4062;49.844;8.120;2022-12-07T09:13:53;99365.94;;;13.98;58.61
8039;BME280;4062;49.844;8.120;2022-12-07T09:15:53;99366.72;;;14.00;58.57
8039;BME280;4062;49.844;8.120;2022-12-07T09:17:54;99370.31;;;13.99;58.45
8039;BME280;4062;49.844;8.120;2022-12-07T09:19:55;99371.16;;;14.00;58.73
8039;BME280;4062;49.844;8.120;2022-12-07T09:21:56;99371.97;;;14.02;58.76
8039;BME280;4062;49.844;8.120;2022-12-07T09:23:57;99368.50;;;14.00;58.63
8039;BME280;4062;49.844;8.120;2022-12-07T09:26:02;99372.03;;;14.00;58.60
8039;BME280;4062;49.844;8.120;2022-12-07T09:28:03;99372.03;;;14.00;58.73
8039;BME280;4062;49.844;8.120;2022-12-07T09:30:05;99376.47;;;14.00;58.80
8039;BME280;4062;49.844;8.120;2022-12-07T09:32:06;99372.97;;;13.99;58.65
8039;BME280;4062;49.844;8.120;2022-12-07T09:34:07;99371.16;;;14.00;58.69
8039;BME280;4062;49.844;8.120;2022-12-07T09:36:08;99372.03;;;14.00;58.67
8039;BME280;4062;49.844;8.120;2022-12-07T09:38:10;99372.03;;;14.00;58.73
8039;BME280;4062;49.844;8.120;2022-12-07T09:40:11;99369.38;;;14.00;58.64
8039;BME280;4062;49.844;8.120;2022-12-07T09:42:32;99365.00;;;13.99;58.72
8039;BME280;4062;49.844;8.120;2022-12-07T09:44:35;99364.03;;;14.00;58.56
8039;BME280;4062;49.844;8.120;2022-12-07T09:46:40;99364.94;;;14.01;58.66
8039;BME280;4062;49.844;8.120;2022-12-07T09:48:43;99366.72;;;14.00;58.59
8039;BME280;4062;49.844;8.120;2022-12-07T09:50:45;99362.28;;;14.01;58.49
8039;BME280;4062;49.844;8.120;2022-12-07T09:52:47;99363.19;;;14.00;58.59
8039;BME280;4062;49.844;8.120;2022-12-07T09:54:49;99357.03;;;13.99;58.66
8039;BME280;4062;49.844;8.120;2022-12-07T09:56:51;99356.09;;;14.00;58.85
8039;BME280;4062;49.844;8.120;2022-12-07T09:59:01;99357.88;;;14.00;58.74
8039;BME280;4062;49.844;8.120;2022-12-07T10:01:15;99356.09;;;14.00;58.66
8039;BME280;4062;49.844;8.120;2022-12-07T10:03:16;99345.44;;;14.00;58.58
8039;BME280;4062;49.844;8.120;2022-12-07T10:05:34;99357.88;;;14.00;58.74
8039;BME280;4062;49.844;8.120;2022-12-07T10:07:39;99359.63;;;14.01;58.73
8039;BME280;4062;49.844;8.120;2022-12-07T10:09:40;99353.44;;;14.00;58.67
8039;BME280;4062;49.844;8.120;2022-12-07T10:12:10;99349.91;;;14.00;58.73
8039;BME280;4062;49.844;8.120;2022-12-07T10:14:13;99345.44;;;14.00;58.64
8039;BME280;4062;49.844;8.120;2022-12-07T10:16:40;99351.66;;;14.01;58.66
8039;BME280;4062;49.844;8.120;2022-12-07T10:18:41;99338.44;;;13.99;58.86
8039;BME280;4062;49.844;8.120;2022-12-07T10:20:42;99342.78;;;14.00;58.60
8039;BME280;4062;49.844;8.120;2022-12-07T10:23:08;99341.94;;;14.00;58.64
8039;BME280;4062;49.844;8.120;2022-12-07T10:25:20;99331.31;;;14.00;58.77
8039;BME280;4062;49.844;8.120;2022-12-07T10:27:40;99325.09;;;14.01;58.92
8039;BME280;4062;49.844;8.120;2022-12-07T10:29:51;99328.66;;;14.00;58.78
8039;BME280;4062;49.844;8.120;2022-12-07T10:32:00;99321.53;;;14.00;58.86
8039;BME280;4062;49.844;8.120;2022-12-07T10:34:01;99316.22;;;14.00;58.80
8039;BME280;4062;49.844;8.120;2022-12-07T10:38:27;99317.13;;;14.01;58.70
8039;BME280;4062;49.844;8.120;2022-12-07T10:40:35;99309.16;;;14.01;58.62
8039;BME280;4062;49.844;8.120;2022-12-07T10:42:36;99305.59;;;14.00;58.71
8039;BME280;4062;49.844;8.120;2022-12-07T10:44:37;99306.56;;;13.99;58.70
8039;BME280;4062;49.844;8.120;2022-12-07T10:56:55;99303.84;;;14.01;58.61
8039;BME280;4062;49.844;8.120;2022-12-07T11:04:18;99302.94;;;14.00;58.59
8039;BME280;4062;49.844;8.120;2022-12-07T11:06:34;99295.94;;;13.99;58.78
8039;BME280;4062;49.844;8.120;2022-12-07T11:11:26;99302.94;;;14.00;58.69
8039;BME280;4062;49.844;8.120;2022-12-07T11:13:53;99299.38;;;14.01;58.76
8039;BME280;4062;49.844;8.120;2022-12-07T11:18:33;99294.13;;;14.00;58.60
8039;BME280;4062;49.844;8.120;2022-12-07T11:21:17;99285.31;;;13.99;58.49
8039;BME280;4062;49.844;8.120;2022-12-07T11:24:09;99288.75;;;14.01;58.59
8039;BME280;4062;49.844;8.120;2022-12-07T11:28:57;99273.72;;;14.00;58.73
8039;BME280;4062;49.844;8.120;2022-12-07T11:31:19;99274.63;;;14.01;58.61
8039;BME280;4062;49.844;8.120;2022-12-07T11:33:36;99276.34;;;14.02;58.78
8039;BME280;4062;49.844;8.120;2022-12-07T11:37:47;99271.88;;;14.02;58.61
8039;BME280;4062;49.844;8.120;2022-12-07T11:39:54;99270.13;;;14.03;58.61
8039;BME280;4062;49.844;8.120;2022-12-07T11:42:10;99270.13;;;14.03;58.63
8039;BME280;4062;49.844;8.120;2022-12-07T11:44:34;99263.91;;;14.02;58.72
8039;BME280;4062;49.844;8.120;2022-12-07T11:46:58;99257.69;;;14.03;58.46
8039;BME280;4062;49.844;8.120;2022-12-07T11:49:54;99256.75;;;14.04;58.56
8039;BME280;4062;49.844;8.120;2022-12-07T11:51:57;99254.94;;;14.05;58.71
8039;BME280;4062;49.844;8.120;2022-12-07T11:54:13;99256.84;;;14.03;58.74
8039;BME280;4062;49.844;8.120;2022-12-07T11:56:21;99251.53;;;14.03;58.67
8039;BME280;4062;49.844;8.120;2022-12-07T12:00:53;99254.94;;;14.05;58.66
8039;BME280;4062;49.844;8.120;2022-12-07T12:03:03;99252.25;;;14.06;58.68
8039;BME280;4062;49.844;8.120;2022-12-07T12:05:18;99247.88;;;14.05;58.54
8039;BME280;4062;49.844;8.120;2022-12-07T12:07:26;99244.31;;;14.05;58.53
8039;BME280;4062;49.844;8.120;2022-12-07T12:09:34;99246.13;;;14.04;58.42
8039;BME280;4062;49.844;8.120;2022-12-07T12:24:25;99243.47;;;14.04;58.54
8039;BME280;4062;49.844;8.120;2022-12-07T12:26:31;99241.63;;;14.06;58.41
8039;BME280;4062;49.844;8.120;2022-12-07T12:28:53;99238.16;;;14.04;58.36
8039;BME280;4062;49.844;8.120;2022-12-07T12:31:28;99232.84;;;14.04;58.39
8039;BME280;4062;49.844;8.120;2022-12-07T12:33:30;99231.03;;;14.05;58.52
8039;BME280;4062;49.844;8.120;2022-12-07T12:35:35;99224.88;;;14.04;58.56
8039;BME280;4062;49.844;8.120;2022-12-07T12:37:41;99231.94;;;14.05;58.41
8039;BME280;4062;49.844;8.120;2022-12-07T12:45:19;99223.06;;;14.05;58.42